Court-Saint-Etienne, Belgium
Current Conditions -  °F | °C
As of 5:06 AM on Monday 20 Oct 2014 (Local Time) from EBBE Reporting Station
Scattered Clouds Scattered Clouds  
Wind Chill: 57°   Ceiling: Unl
Heat Index: 57°   Visibility: 6mi
Dew Point: 54°   Wind: 14mph
Humidity: 88%   Direction: 230°SW
Pressure: 30.06"   Gusts: NA
Location:  50.63°N, 4.57°E
Report Text: EBBE 200306Z AUTO 23012KT 9999 FEW016/// SCT021/// 14/12 Q1018 WHT
Loading
Personal Weather Stations






























Interactive Weather Map
Tropical Storm Tracking
New forecast layout! Learn more

10-Day Weather Forecast

Advertisements
Track Severe Weather on mobile